Time;durP1;ratioP1;P1;durP2;ratioP2;P2;SDS_P1;SDS_P2;PMS_P1;PMS_P2;Temp;Humidity;BMP_temperature;BMP_pressure;BME280_temperature;BME280_humidity;BME280_pressure;Samples;Min_cycle;Max_cycle;Signal;HPM_P1;HPM_P2
2022/04/27 00:00:30;;;;;;;;;;;;;;;25.50;36.71;94351.75;4995712;28;9129;-61
2022/04/27 00:02:58;;;;;;;;;;;;;;;25.48;37.01;94346.75;5008553;28;7234;-61
2022/04/27 00:05:31;;;;;;;;;;;;;;;25.47;36.40;94347.28;5005813;28;9118;-61
2022/04/27 00:07:57;;;;;;;;;;;;;;;25.47;36.68;94341.75;5000859;28;9964;-61
2022/04/27 00:10:24;;;;;;;;;;;;;;;25.48;36.64;94340.50;5012719;28;7260;-61
2022/04/27 00:12:52;;;;;;;;;;;;;;;25.47;36.46;94341.75;5011837;28;7277;-61
2022/04/27 00:15:23;;;;;;;;;;;;;;;25.46;36.97;94341.00;5007702;28;9021;-61
2022/04/27 00:17:49;;;;;;;;;;;;;;;25.48;37.16;94346.75;5004800;28;7230;-61
2022/04/27 00:20:44;;;;;;;;;;;;;;;25.47;36.30;94347.28;5005044;28;9130;-61
2022/04/27 00:23:11;;;;;;;;;;;;;;;25.46;36.92;94348.50;4938285;28;7103;-61
2022/04/27 00:25:37;;;;;;;;;;;;;;;25.43;36.28;94355.78;4935736;28;7301;-61
2022/04/27 00:28:24;;;;;;;;;;;;;;;25.44;36.78;94357.28;4950398;28;8354;-61
2022/04/27 00:30:53;;;;;;;;;;;;;;;25.43;36.20;94347.53;4963232;28;8553;-61
2022/04/27 00:33:28;;;;;;;;;;;;;;;25.42;36.33;94343.28;4977038;28;9119;-61
2022/04/27 00:35:54;;;;;;;;;;;;;;;25.43;36.18;94355.78;4963967;28;7187;-61
2022/04/27 00:38:24;;;;;;;;;;;;;;;25.43;36.42;94347.53;4978400;28;7064;-61
2022/04/27 00:41:19;;;;;;;;;;;;;;;25.43;36.23;94355.78;4956752;28;7271;-61
2022/04/27 00:43:57;;;;;;;;;;;;;;;25.42;36.66;94352.28;4891818;29;7267;-62
2022/04/27 00:46:23;;;;;;;;;;;;;;;25.42;36.73;94351.56;4891108;29;9110;-62
2022/04/27 00:48:51;;;;;;;;;;;;;;;25.42;36.07;94354.31;4883585;29;7018;-62
2022/04/27 00:51:36;;;;;;;;;;;;;;;25.42;36.67;94352.28;4889954;29;9195;-62
2022/04/27 00:54:36;;;;;;;;;;;;;;;25.40;36.89;94346.50;4888988;29;7242;-62
2022/04/27 00:57:05;;;;;;;;;;;;;;;25.40;36.46;94354.03;4869778;29;9365;-62
2022/04/27 00:59:41;;;;;;;;;;;;;;;25.39;36.48;94349.78;4890094;29;8213;-62
2022/04/27 01:02:18;;;;;;;;;;;;;;;25.40;36.58;94348.53;4906740;29;9132;-62
2022/04/27 01:04:45;;;;;;;;;;;;;;;25.38;36.45;94345.53;4918961;29;9193;-62
2022/04/27 01:07:11;;;;;;;;;;;;;;;25.37;36.57;94349.53;4892353;29;7275;-62
2022/04/27 01:09:41;;;;;;;;;;;;;;;25.36;36.82;94351.53;4895608;29;7033;-62
2022/04/27 01:12:08;;;;;;;;;;;;;;;25.33;36.53;94349.81;4893995;29;7259;-62
2022/04/27 01:14:45;;;;;;;;;;;;;;;25.36;36.70;94353.53;4910878;29;7291;-62
2022/04/27 01:17:11;;;;;;;;;;;;;;;25.35;36.75;94347.31;4912877;29;9436;-62
2022/04/27 01:19:37;;;;;;;;;;;;;;;25.34;36.41;94345.81;4926773;28;9240;-62
2022/04/27 01:22:10;;;;;;;;;;;;;;;25.36;37.10;94353.53;4949080;28;8788;-62
2022/04/27 01:24:36;;;;;;;;;;;;;;;25.35;36.52;94350.06;4944277;28;9344;-62
2022/04/27 01:27:03;;;;;;;;;;;;;;;25.32;37.03;94347.56;4966782;28;9155;-62
2022/04/27 01:29:32;;;;;;;;;;;;;;;25.34;36.71;94353.31;4948912;28;7076;-62
2022/04/27 01:32:01;;;;;;;;;;;;;;;25.34;36.99;94351.31;4965328;28;7708;-62
2022/04/27 01:34:27;;;;;;;;;;;;;;;25.35;36.32;94349.31;5036473;28;9396;-62
2022/04/27 01:37:59;;;;;;;;;;;;;;;25.31;36.62;94357.09;5045256;28;6859;-62
2022/04/27 01:39:42;;;;;;;;;;;;;;;25.32;36.75;94351.06;5038371;28;6993;-62
2022/04/27 01:42:25;;;;;;;;;;;;;;;25.31;36.40;94351.59;5041267;28;8933;-62
2022/04/27 01:44:58;;;;;;;;;;;;;;;25.30;36.75;94342.56;5041537;28;9192;-62
2022/04/27 01:47:30;;;;;;;;;;;;;;;25.31;36.59;94354.34;5042592;28;9337;-62
2022/04/27 01:50:07;;;;;;;;;;;;;;;25.28;36.63;94347.09;5063581;28;7062;-60
2022/04/27 01:55:33;;;;;;;;;;;;;;;25.27;36.51;94349.09;5053507;28;9556;-60
2022/04/27 01:58:02;;;;;;;;;;;;;;;25.30;36.86;94347.31;5050706;28;6998;-60
2022/04/27 02:00:29;;;;;;;;;;;;;;;25.29;36.58;94348.59;5033734;28;7260;-59
2022/04/27 02:03:07;;;;;;;;;;;;;;;25.27;36.56;94351.84;5042269;28;8791;-59
2022/04/27 02:05:34;;;;;;;;;;;;;;;25.28;36.83;94352.59;5038850;28;9220;-60
2022/04/27 02:08:00;;;;;;;;;;;;;;;25.27;36.74;94362.13;5041187;28;8706;-60
2022/04/27 02:10:26;;;;;;;;;;;;;;;25.25;36.82;94345.38;5040150;28;9697;-59
2022/04/27 02:12:52;;;;;;;;;;;;;;;25.21;36.56;94356.63;5033780;28;9335;-60
2022/04/27 02:15:18;;;;;;;;;;;;;;;25.22;36.83;94358.16;5042599;28;7247;-59
2022/04/27 02:17:51;;;;;;;;;;;;;;;25.21;36.96;94353.13;5050604;28;8763;-59
2022/04/27 02:20:23;;;;;;;;;;;;;;;25.23;36.53;94356.13;5053378;28;7260;-61
2022/04/27 02:22:51;;;;;;;;;;;;;;;25.22;36.46;94360.16;5044470;28;9069;-61
2022/04/27 02:25:22;;;;;;;;;;;;;;;25.22;36.45;94360.16;5034544;28;6870;-60
2022/04/27 02:27:49;;;;;;;;;;;;;;;25.21;37.39;94369.66;5043267;28;9232;-61
2022/04/27 02:30:17;;;;;;;;;;;;;;;25.22;36.86;94371.16;5043201;28;9044;-60
2022/04/27 02:32:50;;;;;;;;;;;;;;;25.19;36.63;94372.16;5043498;28;9421;-61
2022/04/27 02:35:31;;;;;;;;;;;;;;;25.19;36.78;94369.41;5037231;28;8362;-61
2022/04/27 02:37:58;;;;;;;;;;;;;;;25.20;36.76;94370.91;5033244;28;9060;-61
2022/04/27 02:40:25;;;;;;;;;;;;;;;25.17;36.55;94372.69;5033411;28;7419;-61
2022/04/27 02:42:52;;;;;;;;;;;;;;;25.18;36.50;94376.19;5036710;28;8002;-61
2022/04/27 02:45:26;;;;;;;;;;;;;;;25.19;36.62;94377.66;5049317;28;7182;-61
2022/04/27 02:47:52;;;;;;;;;;;;;;;25.17;37.16;94377.44;5049462;28;7244;-61
2022/04/27 02:53:03;;;;;;;;;;;;;;;25.18;37.02;94374.19;5032202;28;7198;-61
2022/04/27 02:55:33;;;;;;;;;;;;;;;25.17;37.20;94380.19;5032833;28;7267;-61
2022/04/27 02:58:00;;;;;;;;;;;;;;;25.16;37.14;94378.69;5037731;28;8783;-61
2022/04/27 03:00:26;;;;;;;;;;;;;;;25.16;36.58;94364.94;5039755;28;9343;-61
2022/04/27 03:02:57;;;;;;;;;;;;;;;25.17;36.74;94374.69;5030823;28;7203;-61
2022/04/27 03:05:30;;;;;;;;;;;;;;;25.16;36.81;94376.69;5032926;28;9425;-61
2022/04/27 03:07:56;;;;;;;;;;;;;;;25.16;37.18;94373.19;5038862;28;7191;-61
2022/04/27 03:10:24;;;;;;;;;;;;;;;25.15;37.04;94371.69;5029114;28;7047;-61
2022/04/27 03:12:50;;;;;;;;;;;;;;;25.15;36.66;94366.19;5037206;28;9383;-61
2022/04/27 03:15:17;;;;;;;;;;;;;;;25.14;37.24;94368.19;5034569;28;7195;-61
2022/04/27 03:17:43;;;;;;;;;;;;;;;25.13;36.98;94368.69;5047956;28;8889;-61
2022/04/27 03:20:09;;;;;;;;;;;;;;;25.13;36.72;94363.19;5042067;28;9096;-62
2022/04/27 03:22:35;;;;;;;;;;;;;;;25.10;37.16;94366.97;5041423;28;9229;-62
2022/04/27 03:25:08;;;;;;;;;;;;;;;25.11;36.97;94371.22;5031856;28;7473;-62
2022/04/27 03:27:34;;;;;;;;;;;;;;;25.11;36.35;94368.47;5044376;28;9574;-62
2022/04/27 03:30:04;;;;;;;;;;;;;;;25.11;36.74;94374.72;5049637;28;7287;-61
2022/04/27 03:32:36;;;;;;;;;;;;;;;25.12;36.83;94367.94;5044884;28;7266;-62
2022/04/27 03:35:05;;;;;;;;;;;;;;;25.11;37.05;94373.97;5038710;28;9102;-61
2022/04/27 03:37:41;;;;;;;;;;;;;;;25.08;36.79;94378.47;5037712;28;7229;-62
2022/04/27 03:40:09;;;;;;;;;;;;;;;25.08;36.74;94377.72;5035173;28;9203;-62
2022/04/27 03:42:35;;;;;;;;;;;;;;;25.09;36.66;94374.47;5048726;28;6861;-62
2022/04/27 03:45:08;;;;;;;;;;;;;;;25.06;37.10;94381.00;5042752;28;9203;-62
2022/04/27 03:47:35;;;;;;;;;;;;;;;25.06;36.95;94386.50;5036949;28;9767;-62
2022/04/27 03:50:28;;;;;;;;;;;;;;;25.07;37.12;94384.50;5050204;28;7314;-61
2022/04/27 03:53:04;;;;;;;;;;;;;;;25.05;37.29;94387.75;4984772;28;9285;-62
2022/04/27 03:55:42;;;;;;;;;;;;;;;25.07;36.76;94387.25;4985703;28;7226;-61
2022/04/27 03:58:19;;;;;;;;;;;;;;;25.06;36.75;94391.25;5004385;28;7359;-61
2022/04/27 04:00:46;;;;;;;;;;;;;;;25.05;37.22;94392.50;4991249;28;9269;-61
2022/04/27 04:03:14;;;;;;;;;;;;;;;25.03;37.22;94395.03;4992225;28;8854;-62
2022/04/27 04:05:49;;;;;;;;;;;;;;;25.02;37.07;94390.75;4979001;28;7356;-61
2022/04/27 04:08:15;;;;;;;;;;;;;;;25.03;37.12;94390.28;4991275;28;8220;-61
2022/04/27 04:10:41;;;;;;;;;;;;;;;25.03;37.21;94395.03;4980847;28;8955;-62
2022/04/27 04:13:07;;;;;;;;;;;;;;;25.02;36.78;94390.75;4977773;28;7131;-61
2022/04/27 04:15:37;;;;;;;;;;;;;;;24.96;37.16;94382.53;5003514;28;9482;-61
2022/04/27 04:18:17;;;;;;;;;;;;;;;24.98;36.66;94390.28;4995293;28;9510;-61
2022/04/27 04:20:44;;;;;;;;;;;;;;;24.99;36.83;94389.03;4983316;28;9395;-62
2022/04/27 04:23:16;;;;;;;;;;;;;;;24.99;36.90;94400.78;5001365;28;9794;-61
2022/04/27 04:29:06;;;;;;;;;;;;;;;24.99;37.20;94411.06;5015034;28;7415;-62
2022/04/27 04:31:45;;;;;;;;;;;;;;;24.98;37.24;94423.31;5036018;28;7710;-62
2022/04/27 04:34:44;;;;;;;;;;;;;;;24.97;36.58;94421.81;5025530;28;9481;-62
2022/04/27 04:37:20;;;;;;;;;;;;;;;24.97;37.58;94427.31;5008722;28;9220;-61
2022/04/27 04:39:49;;;;;;;;;;;;;;;24.97;36.69;94428.06;4992940;28;9306;-62
2022/04/27 04:42:15;;;;;;;;;;;;;;;24.97;36.84;94424.56;4986758;28;7311;-62
2022/04/27 04:44:41;;;;;;;;;;;;;;;24.99;36.74;94430.31;4985026;28;9091;-62
2022/04/27 04:47:06;;;;;;;;;;;;;;;24.97;36.74;94432.81;4987936;28;7024;-62
2022/04/27 04:49:43;;;;;;;;;;;;;;;24.97;37.21;94430.81;4990834;28;8732;-62
2022/04/27 04:52:10;;;;;;;;;;;;;;;24.98;36.50;94434.31;4987093;28;9117;-62
2022/04/27 04:54:36;;;;;;;;;;;;;;;24.96;37.23;94437.56;5000965;28;7232;-61
2022/04/27 04:57:03;;;;;;;;;;;;;;;24.94;36.77;94434.59;5009559;28;9387;-61
2022/04/27 04:59:30;;;;;;;;;;;;;;;24.96;36.99;94442.31;4985535;28;7668;-62
2022/04/27 05:01:57;;;;;;;;;;;;;;;24.95;36.95;94438.06;4992545;28;7226;-61
2022/04/27 05:04:39;;;;;;;;;;;;;;;24.92;36.69;94439.84;4994972;28;7515;-62
2022/04/27 05:07:07;;;;;;;;;;;;;;;24.95;36.24;94443.56;4993218;28;8791;-61
2022/04/27 05:09:33;;;;;;;;;;;;;;;24.94;36.42;94439.31;4993013;28;9075;-61
2022/04/27 05:11:59;;;;;;;;;;;;;;;24.95;36.84;94446.31;5016799;28;9393;-61
2022/04/27 05:14:25;;;;;;;;;;;;;;;24.92;36.91;94436.34;5050829;28;8200;-61
2022/04/27 05:17:17;;;;;;;;;;;;;;;24.93;37.10;94443.31;5046027;28;9675;-62
2022/04/27 05:19:43;;;;;;;;;;;;;;;24.91;37.00;94443.84;4958788;28;7269;-61
2022/04/27 05:22:11;;;;;;;;;;;;;;;24.87;36.64;94443.34;4968615;28;8651;-61
2022/04/27 05:24:47;;;;;;;;;;;;;;;24.89;36.67;94443.59;4963132;28;7988;-61
2022/04/27 05:27:14;;;;;;;;;;;;;;;24.89;36.98;94446.34;4983746;28;7059;-61
2022/04/27 05:32:43;;;;;;;;;;;;;;;24.89;36.63;94448.34;4974909;28;9226;-61
2022/04/27 05:35:28;;;;;;;;;;;;;;;24.89;36.88;94453.84;4974261;28;7259;-61
2022/04/27 05:38:26;;;;;;;;;;;;;;;24.85;36.81;94451.34;4956520;28;6982;-61
2022/04/27 05:40:52;;;;;;;;;;;;;;;24.87;36.64;94448.09;4926706;29;7414;-62
2022/04/27 05:43:28;;;;;;;;;;;;;;;24.85;37.22;94448.59;4920189;29;7074;-61
2022/04/27 05:45:58;;;;;;;;;;;;;;;24.85;36.77;94443.09;4926945;29;7289;-62
2022/04/27 05:48:24;;;;;;;;;;;;;;;24.87;36.75;94445.34;4944112;29;9583;-61
2022/04/27 05:50:51;;;;;;;;;;;;;;;24.85;36.75;94456.88;4945017;28;7259;-61
2022/04/27 05:53:20;;;;;;;;;;;;;;;24.84;37.07;94457.38;4925126;28;9094;-61
2022/04/27 05:55:48;;;;;;;;;;;;;;;24.82;36.92;94457.84;4932974;28;7472;-60
2022/04/27 05:58:38;;;;;;;;;;;;;;;24.81;37.22;94459.13;4968876;28;7230;-61
2022/04/27 06:01:07;;;;;;;;;;;;;;;24.80;36.91;94459.63;4968963;28;7655;-61
2022/04/27 06:03:34;;;;;;;;;;;;;;;24.81;37.10;94461.88;4983259;28;9120;-61
2022/04/27 06:06:01;;;;;;;;;;;;;;;24.81;37.08;94466.63;4989926;28;9095;-61
2022/04/27 06:08:30;;;;;;;;;;;;;;;24.81;37.55;94464.63;4987104;28;9590;-62
2022/04/27 06:10:55;;;;;;;;;;;;;;;24.82;37.08;94466.13;4972181;28;6972;-61
2022/04/27 06:13:21;;;;;;;;;;;;;;;24.81;36.67;94459.13;4971914;28;7493;-61
2022/04/27 06:15:47;;;;;;;;;;;;;;;24.79;37.07;94458.88;4984077;28;9357;-61
2022/04/27 06:18:17;;;;;;;;;;;;;;;24.78;36.40;94460.13;5036010;28;7094;-61
2022/04/27 06:20:43;;;;;;;;;;;;;;;24.79;36.88;94466.38;5037736;28;7949;-62
2022/04/27 06:23:13;;;;;;;;;;;;;;;24.76;36.96;94465.38;5030919;28;7675;-61
2022/04/27 06:25:41;;;;;;;;;;;;;;;24.77;36.87;94466.13;5040604;28;7475;-62
2022/04/27 06:28:17;;;;;;;;;;;;;;;24.76;37.41;94465.38;5033468;28;7375;-61
2022/04/27 06:30:44;;;;;;;;;;;;;;;24.76;36.92;94464.63;5037662;28;7265;-61
2022/04/27 06:33:15;;;;;;;;;;;;;;;24.78;36.77;94464.88;5050945;28;7001;-62
2022/04/27 06:35:43;;;;;;;;;;;;;;;24.76;37.27;94461.88;5044318;28;7070;-61
2022/04/27 06:38:09;;;;;;;;;;;;;;;24.73;37.23;94474.59;5038698;28;7338;-61
2022/04/27 06:41:09;;;;;;;;;;;;;;;24.73;36.91;94472.59;5048514;28;7065;-62
2022/04/27 06:43:36;;;;;;;;;;;;;;;24.77;37.10;94468.88;4972004;28;7054;-61
2022/04/27 06:46:14;;;;;;;;;;;;;;;24.78;37.11;94470.38;4967253;28;9505;-62
2022/04/27 06:48:41;;;;;;;;;;;;;;;24.77;37.05;94468.88;4968257;28;7281;-62
2022/04/27 06:51:18;;;;;;;;;;;;;;;24.77;37.00;94466.13;4955714;28;9094;-62
2022/04/27 06:53:47;;;;;;;;;;;;;;;24.76;37.08;94465.38;4965458;28;7204;-62
2022/04/27 06:56:27;;;;;;;;;;;;;;;24.77;37.36;94468.88;4951897;28;7392;-61
2022/04/27 06:58:53;;;;;;;;;;;;;;;24.75;36.64;94472.13;4962870;28;7165;-61
2022/04/27 07:01:22;;;;;;;;;;;;;;;24.73;37.23;94472.59;4951868;28;7067;-61
2022/04/27 07:03:55;;;;;;;;;;;;;;;24.75;36.71;94479.66;4951885;28;9203;-61
2022/04/27 07:06:22;;;;;;;;;;;;;;;24.74;36.87;94487.13;4945600;28;6979;-60
2022/04/27 07:08:49;;;;;;;;;;;;;;;24.74;37.07;94487.13;4967280;28;7253;-61
2022/04/27 07:11:15;;;;;;;;;;;;;;;24.75;37.30;94488.63;4949026;28;7255;-63
2022/04/27 07:13:43;;;;;;;;;;;;;;;24.76;37.14;94489.38;4948056;28;7405;-61
2022/04/27 07:16:11;;;;;;;;;;;;;;;24.76;36.80;94490.13;4948959;28;7014;-61
2022/04/27 07:18:38;;;;;;;;;;;;;;;24.73;37.24;94494.59;4982533;28;7284;-62
2022/04/27 07:21:08;;;;;;;;;;;;;;;24.73;36.99;94498.63;5040761;28;9584;-62
2022/04/27 07:23:34;;;;;;;;;;;;;;;24.73;37.33;94498.63;5034412;28;7183;-63
2022/04/27 07:26:05;;;;;;;;;;;;;;;24.70;37.23;94495.63;5027458;28;7183;-61
2022/04/27 07:28:31;;;;;;;;;;;;;;;24.71;37.25;94493.59;5036547;28;7004;-61
2022/04/27 07:30:57;;;;;;;;;;;;;;;24.71;37.80;94494.38;5054331;28;6854;-61
2022/04/27 07:33:24;;;;;;;;;;;;;;;24.71;37.48;94499.09;5042101;28;7029;-62
2022/04/27 07:35:50;;;;;;;;;;;;;;;24.73;37.31;94512.38;5030390;28;7581;-62
2022/04/27 07:38:18;;;;;;;;;;;;;;;24.71;36.87;94501.88;5051890;28;7931;-61
2022/04/27 07:40:44;;;;;;;;;;;;;;;24.70;37.29;94509.38;5051558;28;7430;-61
2022/04/27 07:43:10;;;;;;;;;;;;;;;24.72;37.21;94500.63;5031468;28;9276;-61
2022/04/27 07:45:35;;;;;;;;;;;;;;;24.71;37.13;94499.09;5038015;28;7515;-62
2022/04/27 07:48:04;;;;;;;;;;;;;;;24.73;37.05;94513.88;5044476;28;8895;-62
2022/04/27 07:50:30;;;;;;;;;;;;;;;24.75;36.96;94507.88;5037811;28;9165;-62
2022/04/27 07:52:57;;;;;;;;;;;;;;;24.75;37.45;94516.13;5031236;28;9097;-61
2022/04/27 07:55:23;;;;;;;;;;;;;;;24.76;37.50;94514.91;5044975;28;8816;-61
2022/04/27 07:57:50;;;;;;;;;;;;;;;24.77;36.85;94513.66;5041905;28;9056;-62
2022/04/27 08:00:16;;;;;;;;;;;;;;;24.77;37.08;94519.16;5059389;28;9102;-61
2022/04/27 08:02:47;;;;;;;;;;;;;;;24.78;36.70;94519.88;5036420;28;9082;-61
2022/04/27 08:05:15;;;;;;;;;;;;;;;24.79;37.41;94510.41;5059101;28;7261;-61
2022/04/27 08:07:48;;;;;;;;;;;;;;;24.79;36.72;94513.16;5031343;28;9039;-60
2022/04/27 08:10:19;;;;;;;;;;;;;;;24.79;36.88;94518.66;5041165;28;9118;-61
2022/04/27 08:12:47;;;;;;;;;;;;;;;24.79;36.87;94516.66;5028673;28;6863;-60
2022/04/27 08:15:14;;;;;;;;;;;;;;;24.78;37.36;94514.38;5038621;28;8599;-61
2022/04/27 08:18:00;;;;;;;;;;;;;;;24.80;36.87;94523.63;5050610;28;8976;-61
2022/04/27 08:23:34;;;;;;;;;;;;;;;24.78;37.10;94523.38;5037340;28;7248;-60
2022/04/27 08:26:06;;;;;;;;;;;;;;;24.78;37.13;94517.88;5033080;28;9387;-61
2022/04/27 08:28:37;;;;;;;;;;;;;;;24.78;37.06;94522.63;5047406;28;7175;-62
2022/04/27 08:31:13;;;;;;;;;;;;;;;24.76;37.42;94525.13;5048936;28;7078;-61
2022/04/27 08:33:44;;;;;;;;;;;;;;;24.76;37.27;94523.16;5054989;28;6859;-61
2022/04/27 08:36:14;;;;;;;;;;;;;;;24.78;37.61;94530.88;5052273;28;8089;-62
2022/04/27 08:38:56;;;;;;;;;;;;;;;24.79;36.83;94530.41;5054206;28;7260;-61
2022/04/27 08:41:42;;;;;;;;;;;;;;;24.78;37.21;94531.66;5048916;28;7082;-61
2022/04/27 08:44:37;;;;;;;;;;;;;;;24.79;37.47;94537.91;5049702;28;7090;-61
2022/04/27 08:47:09;;;;;;;;;;;;;;;24.79;36.77;94529.66;4985667;28;9409;-62
2022/04/27 08:49:35;;;;;;;;;;;;;;;24.78;37.26;94526.16;4964506;28;8716;-60
2022/04/27 08:52:01;;;;;;;;;;;;;;;24.79;36.88;94526.91;4964175;28;8809;-60
2022/04/27 08:54:28;;;;;;;;;;;;;;;24.79;37.01;94529.66;4969248;28;7347;-62
2022/04/27 08:56:54;;;;;;;;;;;;;;;24.79;37.28;94532.41;4962925;28;7008;-62
2022/04/27 08:59:22;;;;;;;;;;;;;;;24.77;37.42;94534.91;4985252;28;7271;-62
2022/04/27 09:01:49;;;;;;;;;;;;;;;24.77;36.82;94537.66;4966098;28;9486;-61
2022/04/27 09:04:25;;;;;;;;;;;;;;;24.76;36.84;94534.16;4983415;28;7296;-61
2022/04/27 09:06:51;;;;;;;;;;;;;;;24.75;37.47;94531.91;4971575;28;9135;-59
2022/04/27 09:09:36;;;;;;;;;;;;;;;24.73;37.46;94527.63;4980558;28;9047;-59
2022/04/27 09:12:08;;;;;;;;;;;;;;;24.77;37.46;94534.91;4970177;28;8461;-59
2022/04/27 09:14:38;;;;;;;;;;;;;;;24.76;37.35;94528.66;4965022;28;7130;-59
2022/04/27 09:23:06;;;;;;;;;;;;;;;24.78;37.41;94533.63;4988616;28;7965;-61
2022/04/27 09:25:36;;;;;;;;;;;;;;;24.77;37.46;94524.66;5056577;28;7285;-61
2022/04/27 09:28:07;;;;;;;;;;;;;;;24.78;37.45;94534.41;5037437;28;9005;-61
2022/04/27 09:30:53;;;;;;;;;;;;;;;24.77;37.29;94529.41;5043676;28;7243;-61
2022/04/27 09:33:36;;;;;;;;;;;;;;;24.77;37.42;94534.91;5040046;28;7290;-61
2022/04/27 09:36:25;;;;;;;;;;;;;;;24.70;37.18;94525.13;5047000;28;7183;-61
2022/04/27 09:39:06;;;;;;;;;;;;;;;24.70;37.17;94525.88;5054961;28;7252;-61
2022/04/27 09:42:05;;;;;;;;;;;;;;;24.71;37.75;94535.63;5045312;28;8757;-61
2022/04/27 09:44:38;;;;;;;;;;;;;;;24.73;37.05;94526.13;5040341;28;9062;-60
2022/04/27 09:47:08;;;;;;;;;;;;;;;24.69;38.01;94526.38;5039955;28;9389;-60
2022/04/27 09:49:41;;;;;;;;;;;;;;;24.73;37.58;94526.13;5054329;28;7231;-60
2022/04/27 09:52:12;;;;;;;;;;;;;;;24.73;37.42;94529.63;5053089;28;9545;-61
2022/04/27 09:54:49;;;;;;;;;;;;;;;24.73;37.03;94526.84;5053720;28;7235;-61
2022/04/27 09:57:18;;;;;;;;;;;;;;;24.73;37.00;94530.38;5060873;28;7082;-61
2022/04/27 09:59:47;;;;;;;;;;;;;;;24.75;37.33;94526.41;5035080;28;7471;-61
2022/04/27 10:02:24;;;;;;;;;;;;;;;24.76;37.43;94527.88;5044419;28;7266;-61
2022/04/27 10:04:51;;;;;;;;;;;;;;;24.80;37.40;94522.88;5038407;28;8720;-61
2022/04/27 10:07:21;;;;;;;;;;;;;;;24.80;37.73;94522.88;5040443;28;7405;-61
2022/04/27 10:09:49;;;;;;;;;;;;;;;24.81;36.90;94527.91;5045395;28;9547;-61
2022/04/27 10:12:16;;;;;;;;;;;;;;;24.82;37.09;94525.88;5051897;28;9656;-60
2022/04/27 10:14:42;;;;;;;;;;;;;;;24.80;37.28;94522.88;5041860;28;7276;-61
2022/04/27 10:17:11;;;;;;;;;;;;;;;24.79;37.35;94521.41;5049832;28;9339;-60
2022/04/27 10:19:46;;;;;;;;;;;;;;;24.77;37.48;94521.91;5052760;28;9325;-60
2022/04/27 10:22:32;;;;;;;;;;;;;;;24.76;37.49;94512.16;5049531;28;8789;-60
2022/04/27 10:25:09;;;;;;;;;;;;;;;24.81;37.15;94518.88;5045374;28;9835;-60
2022/04/27 10:27:50;;;;;;;;;;;;;;;24.81;37.56;94516.91;5038378;28;8967;-60
2022/04/27 10:30:42;;;;;;;;;;;;;;;24.83;36.89;94519.13;5043439;28;7084;-60
2022/04/27 10:33:11;;;;;;;;;;;;;;;24.84;37.21;94506.91;5040574;23;7231;-53
2022/04/27 10:35:37;;;;;;;;;;;;;;;24.84;36.81;94518.63;4996554;28;7072;-52
2022/04/27 10:38:07;;;;;;;;;;;;;;;24.85;37.57;94513.88;4995153;28;8397;-53
2022/04/27 10:40:39;;;;;;;;;;;;;;;24.85;37.52;94513.88;4996355;28;7307;-53
2022/04/27 10:46:46;;;;;;;;;;;;;;;24.88;37.45;94512.88;4997277;28;6931;-51
2022/04/27 10:49:24;;;;;;;;;;;;;;;24.87;37.08;94517.63;4980242;28;7286;-54
2022/04/27 10:52:03;;;;;;;;;;;;;;;24.89;37.52;94509.63;4996595;28;7636;-52
2022/04/27 10:54:34;;;;;;;;;;;;;;;24.87;37.47;94508.63;5004120;28;9190;-53
2022/04/27 10:57:15;;;;;;;;;;;;;;;24.87;37.04;94514.13;4991587;28;9006;-52
2022/04/27 11:00:02;;;;;;;;;;;;;;;24.89;37.54;94517.13;4989019;28;9172;-53
2022/04/27 11:03:16;;;;;;;;;;;;;;;24.86;37.35;94518.16;4978460;28;7062;-52
2022/04/27 11:05:52;;;;;;;;;;;;;;;24.84;37.56;94512.41;4965881;28;9021;-53
2022/04/27 11:08:25;;;;;;;;;;;;;;;24.90;37.24;94522.13;4971476;28;7114;-53
2022/04/27 11:10:55;;;;;;;;;;;;;;;24.90;37.68;94521.38;4971379;28;7620;-53
2022/04/27 11:13:32;;;;;;;;;;;;;;;24.91;37.35;94517.38;4951816;28;7337;-51
2022/04/27 11:16:11;;;;;;;;;;;;;;;24.89;37.10;94514.38;4958131;28;9048;-50
2022/04/27 11:18:55;;;;;;;;;;;;;;;24.88;37.54;94519.13;4970198;28;7011;-54
2022/04/27 11:21:31;;;;;;;;;;;;;;;24.92;37.21;94516.13;4971574;28;7192;-52
2022/04/27 11:24:07;;;;;;;;;;;;;;;24.93;37.04;94525.88;4950408;28;9096;-53
2022/04/27 11:26:53;;;;;;;;;;;;;;;24.93;37.28;94520.34;4964513;28;6860;-51
2022/04/27 11:29:32;;;;;;;;;;;;;;;24.90;37.48;94527.66;4960953;28;7126;-52
2022/04/27 11:32:05;;;;;;;;;;;;;;;24.89;37.52;94526.13;4962666;28;8743;-52
2022/04/27 11:34:32;;;;;;;;;;;;;;;24.91;37.17;94522.88;4969813;28;8791;-51
2022/04/27 11:37:12;;;;;;;;;;;;;;;24.89;37.79;94514.38;4976837;28;7218;-52
2022/04/27 11:39:39;;;;;;;;;;;;;;;24.91;37.82;94520.13;5006789;28;7330;-51
2022/04/27 11:42:05;;;;;;;;;;;;;;;24.91;37.11;94522.88;4992896;28;8753;-52
2022/04/27 11:44:32;;;;;;;;;;;;;;;24.93;37.17;94517.59;4992187;28;7251;-50
2022/04/27 11:46:58;;;;;;;;;;;;;;;24.93;37.02;94514.84;4992210;28;9078;-50
2022/04/27 11:49:25;;;;;;;;;;;;;;;24.91;37.50;94515.38;4988834;28;9050;-52
2022/04/27 11:51:52;;;;;;;;;;;;;;;24.93;37.81;94514.84;4989761;28;7232;-52
2022/04/27 11:54:25;;;;;;;;;;;;;;;24.93;37.32;94525.88;4992968;28;9444;-51
2022/04/27 11:56:56;;;;;;;;;;;;;;;24.89;37.55;94511.63;4987999;28;8808;-51
2022/04/27 11:59:23;;;;;;;;;;;;;;;24.93;37.45;94514.84;5002598;28;7308;-51
2022/04/27 12:01:53;;;;;;;;;;;;;;;24.90;37.37;94522.13;4999223;28;9421;-52
2022/04/27 12:04:42;;;;;;;;;;;;;;;24.86;37.78;94518.88;4982815;28;9161;-52
2022/04/27 12:07:16;;;;;;;;;;;;;;;24.90;37.78;94516.63;4988663;28;7353;-52
2022/04/27 12:10:10;;;;;;;;;;;;;;;24.91;37.62;94522.88;4989778;28;7370;-53
2022/04/27 12:12:41;;;;;;;;;;;;;;;24.90;37.40;94522.13;4998589;28;9375;-51
2022/04/27 12:15:11;;;;;;;;;;;;;;;24.92;37.32;94516.13;4984606;28;9111;-52
2022/04/27 12:17:55;;;;;;;;;;;;;;;24.94;37.25;94519.13;4992081;28;7285;-54
2022/04/27 12:20:51;;;;;;;;;;;;;;;24.95;37.68;94515.09;5004327;28;9122;-51
2022/04/27 12:23:38;;;;;;;;;;;;;;;25.00;37.37;94519.84;4989798;28;7326;-52
2022/04/27 12:26:04;;;;;;;;;;;;;;;24.98;37.73;94511.34;4981454;28;9421;-51
2022/04/27 12:28:49;;;;;;;;;;;;;;;24.98;37.68;94516.84;4977667;28;7281;-50
2022/04/27 12:31:19;;;;;;;;;;;;;;;24.99;37.27;94521.84;4984991;28;7297;-53
2022/04/27 12:33:48;;;;;;;;;;;;;;;25.02;37.66;94515.34;4982860;28;9108;-51
2022/04/27 12:39:20;;;;;;;;;;;;;;;25.07;37.79;94513.84;4986147;28;8744;-53
2022/04/27 12:41:48;;;;;;;;;;;;;;;25.10;37.57;94510.09;4989852;28;7268;-53
2022/04/27 12:44:24;;;;;;;;;;;;;;;25.11;37.28;94517.06;5004347;28;7176;-53
2022/04/27 12:46:58;;;;;;;;;;;;;;;25.10;37.88;94519.06;4980137;28;7462;-53
2022/04/27 12:49:26;;;;;;;;;;;;;;;25.12;37.33;94518.59;4986100;28;9370;-52
2022/04/27 12:52:45;;;;;;;;;;;;;;;25.10;37.96;94521.81;5002890;28;9075;-54
2022/04/27 12:55:14;;;;;;;;;;;;;;;25.14;37.38;94518.84;4981724;28;9674;-52
2022/04/27 12:57:50;;;;;;;;;;;;;;;25.15;37.35;94509.31;4986652;28;9079;-52
2022/04/27 13:00:19;;;;;;;;;;;;;;;25.14;37.48;94510.56;4987112;28;7224;-53
2022/04/27 13:02:46;;;;;;;;;;;;;;;25.19;37.67;94521.56;4984719;28;9485;-52
2022/04/27 13:05:14;;;;;;;;;;;;;;;25.17;37.21;94509.56;4987119;28;7277;-52
2022/04/27 13:07:42;;;;;;;;;;;;;;;25.23;37.48;94500.03;4998676;28;7104;-52
2022/04/27 13:12:56;;;;;;;;;;;;;;;25.29;36.87;94502.78;4986556;28;7243;-52
2022/04/27 13:15:26;;;;;;;;;;;;;;;25.31;37.62;94500.25;5002392;28;7102;-52
2022/04/27 13:17:56;;;;;;;;;;;;;;;25.32;37.12;94501.75;4986524;28;9021;-51
2022/04/27 13:20:34;;;;;;;;;;;;;;;25.30;37.38;94493.25;5005511;28;7275;-50
2022/04/27 13:23:04;;;;;;;;;;;;;;;25.35;37.78;94497.97;4989931;28;9199;-50
2022/04/27 13:25:38;;;;;;;;;;;;;;;25.36;37.81;94496.72;4966649;28;9252;-52
2022/04/27 13:28:06;;;;;;;;;;;;;;;25.35;37.11;94503.50;4996987;28;8732;-52
2022/04/27 13:30:34;;;;;;;;;;;;;;;25.37;37.41;94493.47;5006661;28;7421;-50
2022/04/27 13:33:10;;;;;;;;;;;;;;;25.39;37.23;94496.47;5006337;28;7204;-52
2022/04/27 13:35:37;;;;;;;;;;;;;;;25.40;37.28;94486.94;5000924;28;7233;-52
2022/04/27 13:38:05;;;;;;;;;;;;;;;25.45;37.11;94492.97;4979217;28;7082;-53
2022/04/27 13:40:31;;;;;;;;;;;;;;;25.47;36.89;94482.94;5000917;28;7017;-53
2022/04/27 13:42:57;;;;;;;;;;;;;;;25.49;37.40;94485.19;5003298;28;9268;-51
2022/04/27 13:45:23;;;;;;;;;;;;;;;25.50;36.82;94487.44;4974917;28;9285;-52
2022/04/27 13:47:49;;;;;;;;;;;;;;;25.51;36.90;94483.44;5003659;28;7079;-51
2022/04/27 13:50:15;;;;;;;;;;;;;;;25.52;36.85;94487.66;5000318;28;7017;-52
2022/04/27 13:52:43;;;;;;;;;;;;;;;25.57;36.91;94492.41;4976312;28;8383;-51